createdAt,value
2022-12-28T00:00:10.607Z,999.73
2022-12-28T00:00:36.103Z,1000.03
2022-12-28T00:00:56.877Z,1000.03
2022-12-28T00:01:28.760Z,1000.03
2022-12-28T00:02:00.616Z,999.93
2022-12-28T00:02:32.563Z,999.93
2022-12-28T00:03:06.518Z,999.63
2022-12-28T00:03:37.066Z,999.63
2022-12-28T00:04:08.937Z,999.73
2022-12-28T00:04:36.200Z,999.83
2022-12-28T00:04:56.482Z,999.83
2022-12-28T00:05:30.434Z,999.83
2022-12-28T00:06:00.574Z,999.83
2022-12-28T00:06:32.688Z,999.83
2022-12-28T00:07:04.910Z,999.73
2022-12-28T00:07:36.480Z,999.73
2022-12-28T00:08:09.021Z,999.63
2022-12-28T00:08:36.174Z,999.52
2022-12-28T00:08:56.915Z,999.52
2022-12-28T00:09:28.868Z,999.52
2022-12-28T00:10:01.237Z,999.73
2022-12-28T00:11:08.065Z,999.73
2022-12-28T00:11:08.998Z,999.63
2022-12-28T00:11:36.928Z,999.63
2022-12-28T00:12:08.689Z,999.52
2022-12-28T00:12:35.947Z,999.52
2022-12-28T00:12:56.670Z,999.52
2022-12-28T00:13:29.626Z,999.52
2022-12-28T00:14:00.753Z,999.63
2022-12-28T00:14:32.487Z,999.63
2022-12-28T00:15:06.244Z,999.63
2022-12-28T00:15:40.749Z,999.63
2022-12-28T00:16:08.788Z,999.52
2022-12-28T00:16:36.172Z,999.63
2022-12-28T00:16:56.477Z,999.63
2022-12-28T00:17:28.824Z,999.63
2022-12-28T00:18:00.724Z,999.42
2022-12-28T00:18:32.541Z,999.42
2022-12-28T00:19:04.656Z,999.73
2022-12-28T00:19:36.638Z,999.73
2022-12-28T00:20:10.084Z,999.52
2022-12-28T00:20:38.016Z,999.63
2022-12-28T00:20:56.847Z,999.63
2022-12-28T00:21:28.939Z,999.63
2022-12-28T00:22:01.997Z,999.63
2022-12-28T00:22:33.248Z,999.63
2022-12-28T00:23:05.299Z,999.63
2022-12-28T00:23:37.001Z,999.63
2022-12-28T00:24:09.095Z,999.73
2022-12-28T00:24:35.966Z,999.52
2022-12-28T00:24:56.720Z,999.52
2022-12-28T00:25:29.212Z,999.52
2022-12-28T00:26:00.765Z,999.32
2022-12-28T00:26:32.573Z,999.32
2022-12-28T00:27:04.760Z,999.73
2022-12-28T00:27:36.764Z,999.73
2022-12-28T00:28:08.683Z,999.42
2022-12-28T00:28:35.813Z,999.52
2022-12-28T00:29:03.608Z,999.52
2022-12-28T00:29:28.879Z,999.52
2022-12-28T00:30:03.577Z,999.52
2022-12-28T00:30:32.595Z,999.52
2022-12-28T00:31:05.045Z,999.52
2022-12-28T00:31:36.934Z,999.52
2022-12-28T00:32:08.695Z,999.52
2022-12-28T00:32:36.166Z,999.63
2022-12-28T00:32:56.586Z,999.63
2022-12-28T00:33:28.946Z,999.63
2022-12-28T00:34:00.867Z,999.63
2022-12-28T00:34:32.568Z,999.63
2022-12-28T00:35:06.302Z,999.52
2022-12-28T00:35:36.495Z,999.52
2022-12-28T00:36:08.691Z,999.63
2022-12-28T00:37:08.483Z,999.52
2022-12-28T00:37:10.533Z,999.52
2022-12-28T00:37:31.188Z,999.52
2022-12-28T00:38:00.699Z,999.73
2022-12-28T00:38:32.680Z,999.73
2022-12-28T00:39:04.664Z,999.52
2022-12-28T00:39:36.964Z,999.52
2022-12-28T00:40:09.588Z,999.42
2022-12-28T00:40:35.802Z,999.63
2022-12-28T00:40:56.941Z,999.63
2022-12-28T00:41:28.911Z,999.63
2022-12-28T00:42:00.619Z,999.63
2022-12-28T00:42:32.516Z,999.63
2022-12-28T00:43:04.950Z,999.73
2022-12-28T00:43:36.565Z,999.73
2022-12-28T00:44:08.751Z,999.63
2022-12-28T00:44:36.266Z,999.73
2022-12-28T00:44:56.601Z,999.73
2022-12-28T00:45:30.020Z,999.73
2022-12-28T00:46:01.879Z,999.42
2022-12-28T00:46:33.212Z,999.42
2022-12-28T00:47:05.369Z,999.52
2022-12-28T00:47:36.632Z,999.52
2022-12-28T00:48:08.673Z,999.93
2022-12-28T00:48:36.318Z,999.63
2022-12-28T00:48:56.571Z,999.63
2022-12-28T00:49:30.229Z,999.63
2022-12-28T00:50:01.424Z,999.63
2022-12-28T00:50:32.629Z,999.63
2022-12-28T00:51:04.523Z,999.63
2022-12-28T00:51:36.766Z,999.63
2022-12-28T00:52:11.301Z,999.52
2022-12-28T00:52:36.746Z,999.52
2022-12-28T00:52:56.627Z,999.52
2022-12-28T00:53:29.398Z,999.52
2022-12-28T00:54:00.758Z,999.63
2022-12-28T00:54:32.672Z,999.63
2022-12-28T00:55:06.012Z,999.52
2022-12-28T00:55:36.800Z,999.52
2022-12-28T00:56:08.800Z,999.42
2022-12-28T00:56:35.939Z,999.42
2022-12-28T00:56:56.595Z,999.42
2022-12-28T00:57:28.982Z,999.42
2022-12-28T00:58:01.902Z,999.52
2022-12-28T00:58:33.015Z,999.52
2022-12-28T00:59:04.593Z,999.42
2022-12-28T00:59:36.746Z,999.42
2022-12-28T01:00:10.068Z,999.42
2022-12-28T01:00:36.326Z,999.42
2022-12-28T01:00:57.127Z,999.42
2022-12-28T01:01:29.177Z,999.42
2022-12-28T01:02:00.769Z,999.32
2022-12-28T01:02:33.509Z,999.32
2022-12-28T01:03:04.692Z,999.32
2022-12-28T01:03:36.704Z,999.32
2022-12-28T01:04:08.913Z,999.42
2022-12-28T01:04:36.307Z,999.32
2022-12-28T01:04:56.617Z,999.32
2022-12-28T01:05:29.167Z,999.32
2022-12-28T01:06:00.643Z,999.52
2022-12-28T01:06:32.607Z,999.52
2022-12-28T01:07:05.021Z,999.42
2022-12-28T01:07:42.624Z,999.52
2022-12-28T01:08:08.739Z,999.52
2022-12-28T01:08:36.574Z,999.32
2022-12-28T01:08:56.576Z,999.32
2022-12-28T01:09:28.899Z,999.32
2022-12-28T01:10:01.211Z,999.42
2022-12-28T01:10:32.508Z,999.42
2022-12-28T01:11:04.776Z,999.32
2022-12-28T01:11:36.921Z,999.32
2022-12-28T01:12:09.978Z,999.32
2022-12-28T01:12:38.368Z,998.92
2022-12-28T01:12:56.713Z,998.92
2022-12-28T01:13:29.155Z,998.92
2022-12-28T01:14:00.652Z,999.32
2022-12-28T01:14:32.618Z,999.32
2022-12-28T01:15:06.282Z,999.12
2022-12-28T01:15:36.620Z,999.12
2022-12-28T01:16:08.862Z,999.22
2022-12-28T01:16:35.875Z,999.22
2022-12-28T01:16:56.638Z,999.22
2022-12-28T01:17:28.847Z,999.22
2022-12-28T01:18:00.880Z,999.22
2022-12-28T01:18:32.975Z,999.22
2022-12-28T01:19:04.760Z,999.22
2022-12-28T01:19:36.599Z,999.22
2022-12-28T01:20:09.886Z,999.22
2022-12-28T01:20:36.681Z,999.12
2022-12-28T01:20:57.007Z,999.12
2022-12-28T01:21:28.953Z,999.12
2022-12-28T01:22:00.635Z,999.22
2022-12-28T01:22:32.799Z,999.22
2022-12-28T01:23:04.820Z,999.22
2022-12-28T01:23:36.783Z,999.22
2022-12-28T01:24:08.798Z,999.22
2022-12-28T01:24:36.011Z,999.32
2022-12-28T01:24:56.738Z,999.32
2022-12-28T01:25:29.693Z,999.32
2022-12-28T01:26:00.650Z,999.12
2022-12-28T01:26:32.632Z,999.12
2022-12-28T01:27:04.691Z,999.22
2022-12-28T01:27:36.915Z,999.22
2022-12-28T01:28:08.773Z,999.12
2022-12-28T01:28:36.008Z,999.22
2022-12-28T01:28:56.664Z,999.22
2022-12-28T01:29:28.866Z,999.22
2022-12-28T01:30:02.561Z,998.92
2022-12-28T01:30:32.696Z,998.92
2022-12-28T01:31:05.003Z,998.92
2022-12-28T01:31:36.860Z,998.92
2022-12-28T01:32:08.848Z,999.02
2022-12-28T01:32:36.207Z,999.02
2022-12-28T01:32:56.542Z,999.02
2022-12-28T01:33:28.839Z,999.02
2022-12-28T01:34:00.669Z,998.92
2022-12-28T01:34:32.995Z,998.92
2022-12-28T01:35:05.640Z,998.71
2022-12-28T01:35:36.610Z,998.71
2022-12-28T01:36:08.772Z,999.02
2022-12-28T01:36:36.626Z,998.81
2022-12-28T01:36:56.693Z,998.81
2022-12-28T01:37:29.122Z,998.81
2022-12-28T01:38:00.991Z,998.81
2022-12-28T01:38:32.614Z,998.81
2022-12-28T01:39:04.592Z,998.71
2022-12-28T01:39:36.646Z,998.71
2022-12-28T01:40:11.784Z,998.71
2022-12-28T01:40:36.576Z,998.81
2022-12-28T01:40:56.884Z,998.81
2022-12-28T01:41:29.098Z,998.81
2022-12-28T01:42:00.918Z,998.71
2022-12-28T01:42:32.588Z,998.71
2022-12-28T01:43:04.899Z,998.44
2022-12-28T01:43:37.828Z,998.44
2022-12-28T01:44:10.415Z,998.61
2022-12-28T01:44:36.384Z,998.61
2022-12-28T01:44:56.630Z,998.61
2022-12-28T01:45:29.995Z,998.61
2022-12-28T01:46:00.732Z,998.51
2022-12-28T01:46:32.840Z,998.51
2022-12-28T01:47:05.821Z,998.51
2022-12-28T01:47:36.891Z,998.51
2022-12-28T01:48:08.757Z,998.51
2022-12-28T01:48:36.627Z,998.61
2022-12-28T01:48:56.647Z,998.61
2022-12-28T01:49:28.964Z,998.61
2022-12-28T01:50:01.217Z,998.44
2022-12-28T01:50:32.591Z,998.44
2022-12-28T01:51:04.776Z,998.51
2022-12-28T01:51:37.231Z,998.51
2022-12-28T01:52:08.683Z,998.61
2022-12-28T01:52:38.208Z,998.44
2022-12-28T01:52:57.116Z,998.44
2022-12-28T01:53:28.833Z,998.44
2022-12-28T01:54:00.643Z,998.44
2022-12-28T01:54:32.600Z,998.44
2022-12-28T01:55:05.794Z,998.51
2022-12-28T01:55:36.557Z,998.51
2022-12-28T01:56:08.695Z,998.44
2022-12-28T01:56:36.378Z,998.44
2022-12-28T01:56:57.189Z,998.44
2022-12-28T01:57:28.900Z,998.44
2022-12-28T01:58:00.783Z,998.51
2022-12-28T01:58:32.574Z,998.51
2022-12-28T01:59:04.765Z,998.44
2022-12-28T01:59:37.116Z,998.44
2022-12-28T02:00:12.135Z,998.24
2022-12-28T02:00:35.999Z,998.34
2022-12-28T02:00:57.072Z,998.34
2022-12-28T02:01:28.959Z,998.34
2022-12-28T02:02:01.064Z,998.51
2022-12-28T02:02:32.878Z,998.51
2022-12-28T02:03:04.765Z,997.93
2022-12-28T02:03:38.450Z,997.93
2022-12-28T02:04:08.773Z,998.14
2022-12-28T02:04:36.075Z,998.24
2022-12-28T02:04:56.686Z,998.24
2022-12-28T02:05:29.273Z,998.24
2022-12-28T02:06:01.227Z,998.34
2022-12-28T02:06:32.665Z,998.34
2022-12-28T02:07:05.160Z,998.34
2022-12-28T02:07:36.677Z,998.34
2022-12-28T02:08:08.738Z,998.24
2022-12-28T02:08:36.198Z,998.44
2022-12-28T02:08:56.570Z,998.44
2022-12-28T02:09:31.312Z,998.44
2022-12-28T02:10:44.068Z,997.93
2022-12-28T02:10:44.328Z,997.93
2022-12-28T02:11:05.174Z,998.34
2022-12-28T02:11:37.077Z,998.34
2022-12-28T02:12:08.778Z,998.24
2022-12-28T02:12:36.066Z,998.03
2022-12-28T02:12:56.699Z,998.03
2022-12-28T02:13:28.916Z,998.03
2022-12-28T02:14:00.731Z,998.24
2022-12-28T02:14:32.519Z,998.24
2022-12-28T02:15:07.016Z,998.24
2022-12-28T02:15:36.771Z,998.24
2022-12-28T02:16:08.806Z,998.03
2022-12-28T02:16:35.956Z,998.24
2022-12-28T02:16:56.594Z,998.24
2022-12-28T02:17:28.757Z,998.24
2022-12-28T02:18:01.729Z,998.14
2022-12-28T02:18:32.591Z,998.14
2022-12-28T02:19:04.515Z,998.14
2022-12-28T02:19:36.682Z,998.14
2022-12-28T02:20:10.101Z,997.93
2022-12-28T02:20:36.416Z,998.03
2022-12-28T02:20:56.849Z,998.03
2022-12-28T02:21:28.721Z,998.03
2022-12-28T02:22:00.891Z,998.03
2022-12-28T02:22:32.664Z,998.03
2022-12-28T02:23:04.816Z,997.83
2022-12-28T02:23:36.718Z,997.83
2022-12-28T02:24:09.103Z,997.93
2022-12-28T02:24:36.009Z,997.83
2022-12-28T02:25:11.558Z,997.83
2022-12-28T02:25:29.302Z,997.83
2022-12-28T02:26:00.710Z,997.73
2022-12-28T02:26:32.517Z,997.73
2022-12-28T02:27:04.627Z,997.83
2022-12-28T02:27:36.560Z,997.83
2022-12-28T02:28:08.749Z,997.73
2022-12-28T02:28:38.854Z,997.73
2022-12-28T02:28:56.661Z,997.73
2022-12-28T02:29:28.856Z,997.73
2022-12-28T02:30:03.196Z,997.73
2022-12-28T02:30:32.782Z,997.73
2022-12-28T02:31:06.060Z,997.83
2022-12-28T02:31:36.576Z,997.83
2022-12-28T02:32:08.713Z,997.63
2022-12-28T02:32:36.587Z,997.83
2022-12-28T02:32:56.790Z,997.83
2022-12-28T02:33:31.664Z,997.83
2022-12-28T02:34:00.713Z,997.73
2022-12-28T02:34:32.620Z,997.73
2022-12-28T02:35:05.703Z,997.63
2022-12-28T02:35:36.697Z,997.63
2022-12-28T02:36:12.954Z,998.03
2022-12-28T02:36:35.903Z,997.63
2022-12-28T02:36:56.597Z,997.63
2022-12-28T02:37:28.940Z,997.63
2022-12-28T02:38:00.776Z,997.53
2022-12-28T02:38:32.758Z,997.53
2022-12-28T02:39:04.781Z,997.63
2022-12-28T02:39:36.874Z,997.63
2022-12-28T02:40:09.151Z,997.63
2022-12-28T02:40:35.956Z,997.53
2022-12-28T02:40:57.061Z,997.53
2022-12-28T02:41:28.922Z,997.53
2022-12-28T02:42:00.690Z,997.53
2022-12-28T02:42:32.813Z,997.53
2022-12-28T02:43:05.014Z,997.63
2022-12-28T02:43:36.641Z,997.63
2022-12-28T02:44:08.772Z,997.53
2022-12-28T02:44:36.447Z,997.43
2022-12-28T02:44:56.570Z,997.43
2022-12-28T02:45:31.613Z,997.43
2022-12-28T02:46:00.945Z,997.63
2022-12-28T02:46:32.953Z,997.63
2022-12-28T02:47:05.341Z,997.53
2022-12-28T02:47:37.132Z,997.53
2022-12-28T02:48:08.770Z,997.63
2022-12-28T02:48:35.912Z,997.53
2022-12-28T02:48:56.788Z,997.53
2022-12-28T02:49:28.878Z,997.53
2022-12-28T02:50:01.499Z,997.53
2022-12-28T02:50:32.637Z,997.53
2022-12-28T02:51:04.653Z,997.43
2022-12-28T02:51:45.141Z,997.43
2022-12-28T02:52:08.927Z,997.43
2022-12-28T02:52:36.128Z,997.53
2022-12-28T02:52:56.753Z,997.53
2022-12-28T02:53:28.931Z,997.53
2022-12-28T02:54:01.687Z,997.32
2022-12-28T02:54:32.840Z,997.32
2022-12-28T02:55:06.032Z,997.63
2022-12-28T02:55:36.802Z,997.63
2022-12-28T02:56:08.900Z,997.12
2022-12-28T02:56:36.226Z,997.32
2022-12-28T02:56:56.637Z,997.32
2022-12-28T02:57:28.846Z,997.32
2022-12-28T02:58:01.353Z,997.12
2022-12-28T02:58:33.718Z,997.12
2022-12-28T02:59:04.783Z,997.32
2022-12-28T02:59:36.977Z,997.32
2022-12-28T03:00:10.353Z,997.22
2022-12-28T03:00:35.953Z,997.22
2022-12-28T03:00:57.196Z,997.22
2022-12-28T03:01:29.005Z,997.22
2022-12-28T03:02:01.050Z,997.32
2022-12-28T03:02:33.030Z,997.32
2022-12-28T03:03:04.786Z,997.12
2022-12-28T03:03:38.764Z,997.12
2022-12-28T03:04:08.716Z,997.12
2022-12-28T03:04:36.753Z,997.12
2022-12-28T03:04:56.750Z,997.12
2022-12-28T03:05:29.677Z,997.12
2022-12-28T03:06:01.041Z,997.22
2022-12-28T03:06:32.881Z,997.22
2022-12-28T03:07:05.016Z,997.22
2022-12-28T03:07:38.646Z,997.22
2022-12-28T03:08:11.372Z,997.12
2022-12-28T03:08:36.283Z,997.02
2022-12-28T03:08:56.800Z,997.02
2022-12-28T03:09:28.876Z,997.02
2022-12-28T03:10:01.463Z,997.12
2022-12-28T03:10:33.074Z,997.12
2022-12-28T03:11:04.676Z,997.12
2022-12-28T03:11:37.146Z,997.12
2022-12-28T03:12:08.726Z,997.12
2022-12-28T03:12:36.077Z,997.12
2022-12-28T03:12:57.051Z,997.12
2022-12-28T03:13:28.862Z,997.12
2022-12-28T03:14:01.445Z,997.02
2022-12-28T03:14:33.030Z,997.02
2022-12-28T03:15:06.352Z,997.12
2022-12-28T03:15:36.754Z,997.12
2022-12-28T03:16:08.745Z,997.02
2022-12-28T03:16:36.145Z,997.12
2022-12-28T03:16:56.598Z,997.12
2022-12-28T03:17:28.858Z,997.12
2022-12-28T03:18:00.870Z,997.12
2022-12-28T03:18:32.714Z,997.12
2022-12-28T03:19:04.912Z,996.92
2022-12-28T03:19:39.008Z,996.92
2022-12-28T03:20:09.687Z,996.92
2022-12-28T03:20:36.865Z,997.02
2022-12-28T03:20:56.920Z,997.02
2022-12-28T03:21:29.505Z,997.02
2022-12-28T03:22:01.657Z,997.02
2022-12-28T03:22:32.682Z,997.02
2022-12-28T03:23:04.598Z,996.82
2022-12-28T03:23:37.119Z,996.82
2022-12-28T03:24:08.740Z,996.61
2022-12-28T03:24:36.082Z,996.82
2022-12-28T03:24:56.799Z,996.82
2022-12-28T03:25:29.177Z,996.82
2022-12-28T03:26:01.093Z,996.82
2022-12-28T03:26:32.847Z,996.82
2022-12-28T03:27:04.651Z,996.51
2022-12-28T03:27:36.650Z,996.51
2022-12-28T03:28:09.214Z,996.82
2022-12-28T03:28:35.978Z,996.61
2022-12-28T03:28:56.813Z,996.61
2022-12-28T03:29:28.849Z,996.61
2022-12-28T03:30:02.323Z,996.82
2022-12-28T03:30:33.557Z,996.82
2022-12-28T03:31:05.394Z,996.71
2022-12-28T03:31:36.819Z,996.71
2022-12-28T03:32:08.907Z,996.61
2022-12-28T03:32:36.785Z,996.61
2022-12-28T03:32:56.601Z,996.61
2022-12-28T03:33:28.824Z,996.61
2022-12-28T03:34:00.783Z,996.71
2022-12-28T03:34:32.646Z,996.71
2022-12-28T03:35:05.778Z,996.61
2022-12-28T03:35:36.573Z,996.61
2022-12-28T03:36:08.688Z,996.71
2022-12-28T03:36:36.283Z,996.41
2022-12-28T03:36:56.735Z,996.41
2022-12-28T03:37:29.073Z,996.41
2022-12-28T03:38:01.037Z,996.51
2022-12-28T03:38:35.477Z,996.51
2022-12-28T03:39:04.618Z,996.41
2022-12-28T03:39:38.228Z,996.41
2022-12-28T03:40:09.310Z,996.31
2022-12-28T03:40:36.320Z,996.51
2022-12-28T03:40:56.943Z,996.51
2022-12-28T03:41:28.811Z,996.51
2022-12-28T03:42:01.616Z,996.31
2022-12-28T03:42:32.654Z,996.31
2022-12-28T03:43:05.046Z,996.41
2022-12-28T03:43:37.682Z,996.41
2022-12-28T03:44:09.038Z,996.24
2022-12-28T03:44:36.231Z,996.31
2022-12-28T03:44:56.660Z,996.31
2022-12-28T03:45:45.411Z,996.31
2022-12-28T03:46:01.082Z,996.41
2022-12-28T03:46:33.672Z,996.41
2022-12-28T03:47:04.976Z,996.41
2022-12-28T03:47:36.974Z,996.41
2022-12-28T03:48:09.405Z,996.31
2022-12-28T03:48:36.248Z,996.24
2022-12-28T03:48:56.563Z,996.24
2022-12-28T03:49:28.807Z,996.24
2022-12-28T03:50:01.474Z,996.14
2022-12-28T03:50:32.907Z,996.14
2022-12-28T03:51:04.761Z,996.04
2022-12-28T03:51:38.288Z,996.04
2022-12-28T03:52:08.755Z,996.24
2022-12-28T03:52:36.272Z,996.04
2022-12-28T03:52:56.615Z,996.04
2022-12-28T03:53:28.730Z,996.04
2022-12-28T03:54:01.820Z,996.14
2022-12-28T03:54:32.605Z,996.14
2022-12-28T03:55:06.510Z,996.24
2022-12-28T03:55:36.978Z,996.24
2022-12-28T03:56:08.959Z,996.24
2022-12-28T03:56:35.990Z,996.24
2022-12-28T03:56:57.880Z,996.24
2022-12-28T03:57:29.427Z,996.24
2022-12-28T03:58:00.799Z,996.24
2022-12-28T03:58:32.633Z,996.24
2022-12-28T03:59:04.592Z,996.41
2022-12-28T03:59:36.690Z,996.41
2022-12-28T04:00:10.388Z,996.24
2022-12-28T04:00:35.998Z,996.14
2022-12-28T04:00:57.076Z,996.14
2022-12-28T04:01:29.000Z,996.14
2022-12-28T04:02:01.763Z,996.31
2022-12-28T04:02:32.754Z,996.31
2022-12-28T04:03:04.651Z,996.24
2022-12-28T04:03:36.568Z,996.24
2022-12-28T04:04:08.722Z,996.14
2022-12-28T04:04:36.231Z,996.04
2022-12-28T04:04:56.656Z,996.04
2022-12-28T04:05:29.211Z,996.04
2022-12-28T04:06:00.945Z,996.04
2022-12-28T04:06:32.673Z,996.04
2022-12-28T04:07:05.185Z,996.04
2022-12-28T04:07:36.815Z,996.04
2022-12-28T04:08:11.833Z,996.24
2022-12-28T04:08:36.501Z,996.24
2022-12-28T04:08:57.167Z,996.24
2022-12-28T04:09:28.870Z,996.24
2022-12-28T04:10:01.660Z,995.94
2022-12-28T04:10:35.643Z,995.94
2022-12-28T04:11:05.173Z,996.24
2022-12-28T04:11:37.652Z,996.24
2022-12-28T04:12:08.773Z,996.14
2022-12-28T04:12:36.220Z,996.24
2022-12-28T04:12:56.758Z,996.24
2022-12-28T04:13:28.872Z,996.24
2022-12-28T04:14:04.282Z,996.14
2022-12-28T04:14:33.248Z,996.14
2022-12-28T04:15:06.262Z,996.24
2022-12-28T04:15:36.679Z,996.24
2022-12-28T04:16:09.426Z,995.94
2022-12-28T04:16:35.905Z,995.94
2022-12-28T04:16:56.654Z,995.94
2022-12-28T04:17:28.994Z,995.94
2022-12-28T04:18:01.791Z,996.04
2022-12-28T04:18:32.640Z,996.04
2022-12-28T04:19:04.970Z,996.14
2022-12-28T04:19:36.617Z,996.14
2022-12-28T04:20:09.619Z,995.94
2022-12-28T04:20:36.298Z,996.04
2022-12-28T04:20:57.051Z,996.04
2022-12-28T04:21:28.858Z,996.04
2022-12-28T04:22:02.883Z,995.94
2022-12-28T04:22:32.559Z,995.94
2022-12-28T04:23:04.796Z,995.83
2022-12-28T04:23:37.020Z,995.83
2022-12-28T04:24:08.759Z,995.94
2022-12-28T04:24:36.022Z,996.04
2022-12-28T04:24:56.656Z,996.04
2022-12-28T04:25:29.333Z,996.04
2022-12-28T04:26:02.244Z,996.04
2022-12-28T04:26:32.751Z,996.04
2022-12-28T04:27:05.363Z,996.04
2022-12-28T04:27:36.649Z,996.04
2022-12-28T04:28:08.956Z,996.04
2022-12-28T04:28:35.980Z,996.14
2022-12-28T04:28:58.286Z,996.14
2022-12-28T04:29:28.938Z,996.14
2022-12-28T04:30:02.637Z,995.94
2022-12-28T04:30:32.691Z,995.94
2022-12-28T04:31:05.025Z,996.04
2022-12-28T04:31:36.698Z,996.04
2022-12-28T04:32:09.157Z,996.04
2022-12-28T04:32:36.313Z,995.94
2022-12-28T04:32:56.645Z,995.94
2022-12-28T04:33:28.897Z,995.94
2022-12-28T04:34:00.772Z,996.24
2022-12-28T04:34:32.689Z,996.24
2022-12-28T04:35:06.120Z,996.14
2022-12-28T04:35:37.532Z,996.14
2022-12-28T04:36:09.492Z,996.04
2022-12-28T04:36:35.935Z,996.04
2022-12-28T04:36:56.693Z,996.04
2022-12-28T04:37:28.843Z,996.04
2022-12-28T04:38:02.121Z,996.14
2022-12-28T04:38:32.730Z,996.14
2022-12-28T04:39:04.671Z,996.24
2022-12-28T04:39:56.260Z,996.24
2022-12-28T04:40:09.761Z,996.04
2022-12-28T04:40:36.667Z,996.14
2022-12-28T04:40:57.326Z,996.14
2022-12-28T04:41:30.305Z,996.14
2022-12-28T04:42:03.294Z,995.94
2022-12-28T04:42:32.755Z,995.94
2022-12-28T04:43:05.101Z,996.04
2022-12-28T04:43:36.742Z,996.04
2022-12-28T04:44:08.779Z,996.31
2022-12-28T04:44:36.421Z,996.04
2022-12-28T04:44:57.374Z,996.04
2022-12-28T04:45:29.885Z,996.04
2022-12-28T04:46:03.287Z,996.14
2022-12-28T04:46:32.871Z,996.14
2022-12-28T04:47:04.874Z,996.14
2022-12-28T04:47:36.715Z,996.14
2022-12-28T04:48:08.785Z,996.04
2022-12-28T04:48:36.221Z,996.04
2022-12-28T04:48:56.678Z,996.04
2022-12-28T04:49:28.868Z,996.04
2022-12-28T04:50:01.609Z,996.04
2022-12-28T04:50:32.891Z,996.04
2022-12-28T04:51:04.672Z,996.04
2022-12-28T04:51:37.036Z,996.04
2022-12-28T04:52:08.755Z,995.94
2022-12-28T04:52:36.052Z,995.63
2022-12-28T04:52:57.514Z,995.63
2022-12-28T04:53:28.819Z,995.63
2022-12-28T04:54:02.464Z,995.83
2022-12-28T04:54:32.650Z,995.83
2022-12-28T04:55:05.939Z,995.63
2022-12-28T04:55:36.646Z,995.63
2022-12-28T04:56:08.858Z,995.73
2022-12-28T04:56:36.170Z,995.83
2022-12-28T04:56:56.633Z,995.83
2022-12-28T04:57:28.868Z,995.83
2022-12-28T04:58:00.804Z,995.63
2022-12-28T04:58:32.694Z,995.63
2022-12-28T04:59:04.676Z,995.73
2022-12-28T04:59:36.706Z,995.73
2022-12-28T05:00:10.227Z,995.73
2022-12-28T05:00:36.401Z,995.73
2022-12-28T05:00:57.358Z,995.73
2022-12-28T05:01:29.268Z,995.73
2022-12-28T05:02:00.852Z,995.83
2022-12-28T05:02:32.860Z,995.83
2022-12-28T05:03:04.849Z,995.94
2022-12-28T05:03:36.787Z,995.94
2022-12-28T05:04:08.907Z,995.83
2022-12-28T05:04:36.180Z,995.94
2022-12-28T05:04:56.841Z,995.94
2022-12-28T05:05:29.258Z,995.94
2022-12-28T05:06:00.791Z,995.63
2022-12-28T05:06:32.825Z,995.63
2022-12-28T05:07:05.048Z,995.94
2022-12-28T05:07:36.620Z,995.94
2022-12-28T05:08:11.338Z,995.63
2022-12-28T05:08:36.488Z,995.73
2022-12-28T05:08:56.710Z,995.73
2022-12-28T05:09:28.895Z,995.73
2022-12-28T05:10:01.482Z,995.53
2022-12-28T05:10:32.673Z,995.53
2022-12-28T05:11:04.619Z,995.63
2022-12-28T05:11:37.226Z,995.63
2022-12-28T05:12:08.745Z,995.43
2022-12-28T05:12:36.140Z,995.53
2022-12-28T05:12:57.558Z,995.53
2022-12-28T05:13:29.516Z,995.53
2022-12-28T05:14:00.832Z,995.53
2022-12-28T05:14:36.991Z,995.53
2022-12-28T05:15:06.375Z,995.43
2022-12-28T05:15:36.663Z,995.43
2022-12-28T05:16:08.854Z,995.33
2022-12-28T05:16:36.088Z,995.22
2022-12-28T05:16:56.862Z,995.22
2022-12-28T05:17:28.895Z,995.22
2022-12-28T05:18:00.772Z,995.22
2022-12-28T05:18:32.657Z,995.22
2022-12-28T05:19:04.671Z,995.22
2022-12-28T05:19:36.807Z,995.22
2022-12-28T05:20:09.326Z,995.22
2022-12-28T05:20:36.263Z,995.63
2022-12-28T05:20:56.979Z,995.63
2022-12-28T05:21:28.880Z,995.63
2022-12-28T05:22:00.721Z,995.22
2022-12-28T05:22:37.742Z,995.22
2022-12-28T05:23:04.934Z,995.22
2022-12-28T05:23:37.093Z,995.22
2022-12-28T05:24:08.912Z,995.12
2022-12-28T05:24:36.182Z,995.12
2022-12-28T05:24:56.737Z,995.12
2022-12-28T05:25:29.283Z,995.12
2022-12-28T05:26:01.653Z,995.02
2022-12-28T05:26:32.642Z,995.02
2022-12-28T05:27:05.042Z,995.22
2022-12-28T05:27:37.201Z,995.22
2022-12-28T05:28:08.845Z,995.02
2022-12-28T05:28:36.216Z,995.02
2022-12-28T05:28:56.889Z,995.02
2022-12-28T05:29:29.014Z,995.02
2022-12-28T05:30:02.278Z,995.12
2022-12-28T05:30:32.974Z,995.12
2022-12-28T05:31:04.807Z,994.92
2022-12-28T05:31:37.279Z,994.92
2022-12-28T05:32:08.852Z,995.02
2022-12-28T05:32:36.839Z,994.92
2022-12-28T05:32:56.621Z,994.92
2022-12-28T05:33:28.866Z,994.92
2022-12-28T05:34:01.061Z,995.02
2022-12-28T05:34:32.928Z,995.02
2022-12-28T05:35:05.727Z,994.82
2022-12-28T05:35:36.770Z,994.82
2022-12-28T05:36:08.900Z,994.92
2022-12-28T05:36:36.404Z,994.82
2022-12-28T05:36:56.753Z,994.82
2022-12-28T05:37:28.913Z,994.82
2022-12-28T05:38:01.276Z,995.02
2022-12-28T05:38:32.660Z,995.02
2022-12-28T05:39:04.672Z,994.82
2022-12-28T05:39:37.025Z,994.82
2022-12-28T05:40:09.399Z,995.02
2022-12-28T05:40:36.185Z,994.82
2022-12-28T05:40:57.075Z,994.82
2022-12-28T05:41:28.938Z,994.82
2022-12-28T05:42:00.915Z,995.22
2022-12-28T05:42:32.907Z,995.22
2022-12-28T05:43:05.050Z,994.82
2022-12-28T05:43:37.248Z,994.82
2022-12-28T05:44:08.808Z,995.02
2022-12-28T05:44:36.571Z,995.02
2022-12-28T05:44:56.906Z,995.02
2022-12-28T05:45:30.094Z,995.02
2022-12-28T05:46:00.820Z,994.92
2022-12-28T05:46:32.842Z,994.92
2022-12-28T05:47:04.757Z,995.02
2022-12-28T05:47:36.873Z,995.02
2022-12-28T05:48:08.811Z,994.92
2022-12-28T05:48:36.186Z,994.82
2022-12-28T05:48:56.669Z,994.82
2022-12-28T05:49:28.897Z,994.82
2022-12-28T05:50:01.766Z,994.82
2022-12-28T05:50:32.819Z,994.82
2022-12-28T05:51:04.737Z,994.92
2022-12-28T05:51:39.571Z,994.92
2022-12-28T05:52:08.807Z,995.02
2022-12-28T05:52:38.603Z,994.92
2022-12-28T05:52:56.679Z,994.92
2022-12-28T05:53:28.974Z,994.92
2022-12-28T05:54:00.905Z,995.02
2022-12-28T05:54:32.773Z,995.02
2022-12-28T05:55:06.228Z,994.92
2022-12-28T05:55:37.183Z,994.92
2022-12-28T05:56:13.807Z,994.72
2022-12-28T05:56:35.933Z,994.92
2022-12-28T05:56:56.740Z,994.92
2022-12-28T05:57:28.963Z,994.92
2022-12-28T05:58:00.910Z,994.82
2022-12-28T05:58:32.651Z,994.82
2022-12-28T05:59:04.696Z,995.02
2022-12-28T05:59:36.785Z,995.02
2022-12-28T06:00:10.241Z,995.02
2022-12-28T06:00:36.248Z,994.92
2022-12-28T06:00:57.225Z,994.92
2022-12-28T06:01:29.017Z,994.92
2022-12-28T06:02:01.077Z,994.82
2022-12-28T06:02:32.983Z,994.82
2022-12-28T06:03:04.881Z,994.72
2022-12-28T06:03:36.908Z,994.72
2022-12-28T06:04:08.849Z,994.72
2022-12-28T06:04:35.981Z,994.72
2022-12-28T06:04:56.750Z,994.72
2022-12-28T06:05:29.196Z,994.72
2022-12-28T06:06:00.918Z,995.02
2022-12-28T06:06:32.843Z,995.02
2022-12-28T06:07:05.031Z,994.72
2022-12-28T06:07:36.671Z,994.72
2022-12-28T06:08:09.308Z,994.61
2022-12-28T06:08:41.753Z,995.02
2022-12-28T06:09:12.975Z,995.02
2022-12-28T06:09:36.668Z,994.72
2022-12-28T06:10:01.553Z,994.72
2022-12-28T06:10:32.741Z,994.72
2022-12-28T06:11:04.801Z,995.02
2022-12-28T06:11:37.317Z,995.02
2022-12-28T06:12:08.771Z,995.02
2022-12-28T06:12:36.028Z,994.82
2022-12-28T06:12:57.419Z,994.82
2022-12-28T06:13:28.787Z,994.82
2022-12-28T06:14:00.885Z,995.02